Terminal Aerodrome Forecast
Issued by NWS Charleston, WV

Current Version | Previous Version | Graphics & Text | Print | Product List | Glossary On
Versions: 1 2 3 4 5 6 7 8 9 10 11 12 13 14 15 16 17 18 19 20 21 22 23 24 25 26 27 28 29 30 31 32 33
000
FTUS41 KRLX 200100 AAA
TAFCRW
TAF AMD
KCRW 200113Z 2001/2024 31007KT P6SM FEW300
     FM200400 32004KT P6SM BKN250
     FM200800 VRB03KT 3SM BR BKN025
     FM201400 32004KT P6SM BKN025
     FM201700 31005KT P6SM BKN250=

USA.gov is the U.S. government's official web portal to all federal, state and local government web resources and services.